sensor_id;sensor_type;location;lat;lon;timestamp;temperature;humidity
82836;DHT22;72587;50.746;8.246;2023-11-19T00:01:36;6.80;99.90
82836;DHT22;72587;50.746;8.246;2023-11-19T00:04:02;6.80;99.90
82836;DHT22;72587;50.746;8.246;2023-11-19T00:06:30;6.80;99.90
82836;DHT22;72587;50.746;8.246;2023-11-19T00:08:55;6.90;99.90
82836;DHT22;72587;50.746;8.246;2023-11-19T00:11:21;6.90;99.90
82836;DHT22;72587;50.746;8.246;2023-11-19T00:13:46;6.90;99.90
82836;DHT22;72587;50.746;8.246;2023-11-19T00:16:12;6.90;99.90
82836;DHT22;72587;50.746;8.246;2023-11-19T00:18:38;7.00;99.90
82836;DHT22;72587;50.746;8.246;2023-11-19T00:21:03;6.90;99.90
82836;DHT22;72587;50.746;8.246;2023-11-19T00:23:29;6.90;99.90
82836;DHT22;72587;50.746;8.246;2023-11-19T00:25:55;6.90;99.90
82836;DHT22;72587;50.746;8.246;2023-11-19T00:28:20;7.00;99.90
82836;DHT22;72587;50.746;8.246;2023-11-19T00:30:46;7.00;99.90
82836;DHT22;72587;50.746;8.246;2023-11-19T00:33:11;7.00;99.90
82836;DHT22;72587;50.746;8.246;2023-11-19T00:35:37;7.00;99.90
82836;DHT22;72587;50.746;8.246;2023-11-19T00:38:02;7.00;99.90
82836;DHT22;72587;50.746;8.246;2023-11-19T00:40:29;7.00;99.90
82836;DHT22;72587;50.746;8.246;2023-11-19T00:42:55;7.00;99.90
82836;DHT22;72587;50.746;8.246;2023-11-19T00:45:20;7.00;99.90
82836;DHT22;72587;50.746;8.246;2023-11-19T00:47:46;7.00;99.90
82836;DHT22;72587;50.746;8.246;2023-11-19T00:50:11;7.00;99.90
82836;DHT22;72587;50.746;8.246;2023-11-19T00:52:38;7.00;99.90
82836;DHT22;72587;50.746;8.246;2023-11-19T00:55:05;7.00;99.90
82836;DHT22;72587;50.746;8.246;2023-11-19T00:57:31;7.10;99.90
82836;DHT22;72587;50.746;8.246;2023-11-19T00:59:58;7.10;99.90
82836;DHT22;72587;50.746;8.246;2023-11-19T01:02:24;7.10;99.90
82836;DHT22;72587;50.746;8.246;2023-11-19T01:04:50;7.10;99.90
82836;DHT22;72587;50.746;8.246;2023-11-19T01:07:16;7.10;99.90
82836;DHT22;72587;50.746;8.246;2023-11-19T01:09:42;7.20;99.90
82836;DHT22;72587;50.746;8.246;2023-11-19T01:12:08;7.20;99.90
82836;DHT22;72587;50.746;8.246;2023-11-19T01:14:34;7.20;99.90
82836;DHT22;72587;50.746;8.246;2023-11-19T01:17:01;7.20;99.90
82836;DHT22;72587;50.746;8.246;2023-11-19T01:19:26;7.20;99.90
82836;DHT22;72587;50.746;8.246;2023-11-19T01:21:54;7.30;99.90
82836;DHT22;72587;50.746;8.246;2023-11-19T01:24:19;7.20;99.90
82836;DHT22;72587;50.746;8.246;2023-11-19T01:26:45;7.20;99.90
82836;DHT22;72587;50.746;8.246;2023-11-19T01:29:14;7.20;99.90
82836;DHT22;72587;50.746;8.246;2023-11-19T01:31:45;7.20;99.90
82836;DHT22;72587;50.746;8.246;2023-11-19T01:34:11;7.20;99.90
82836;DHT22;72587;50.746;8.246;2023-11-19T01:36:37;7.20;99.90
82836;DHT22;72587;50.746;8.246;2023-11-19T01:39:03;7.30;99.90
82836;DHT22;72587;50.746;8.246;2023-11-19T01:41:33;7.30;99.90
82836;DHT22;72587;50.746;8.246;2023-11-19T01:43:59;7.30;99.90
82836;DHT22;72587;50.746;8.246;2023-11-19T01:46:25;7.30;99.90
82836;DHT22;72587;50.746;8.246;2023-11-19T01:48:51;7.20;99.90
82836;DHT22;72587;50.746;8.246;2023-11-19T01:51:17;7.20;99.90
82836;DHT22;72587;50.746;8.246;2023-11-19T01:53:43;7.30;99.90
82836;DHT22;72587;50.746;8.246;2023-11-19T01:56:10;7.30;99.90
82836;DHT22;72587;50.746;8.246;2023-11-19T01:58:37;7.30;99.90
82836;DHT22;72587;50.746;8.246;2023-11-19T02:01:07;7.30;99.90
82836;DHT22;72587;50.746;8.246;2023-11-19T02:03:33;7.30;99.90
82836;DHT22;72587;50.746;8.246;2023-11-19T02:06:00;7.40;99.90
82836;DHT22;72587;50.746;8.246;2023-11-19T02:08:25;7.40;99.90
82836;DHT22;72587;50.746;8.246;2023-11-19T02:10:51;7.40;99.90
82836;DHT22;72587;50.746;8.246;2023-11-19T02:13:18;7.50;99.90
82836;DHT22;72587;50.746;8.246;2023-11-19T02:15:44;7.40;99.90
82836;DHT22;72587;50.746;8.246;2023-11-19T02:18:26;7.40;99.90
82836;DHT22;72587;50.746;8.246;2023-11-19T02:20:56;7.50;99.90
82836;DHT22;72587;50.746;8.246;2023-11-19T02:23:22;7.50;99.90
82836;DHT22;72587;50.746;8.246;2023-11-19T02:28:35;7.60;99.90
82836;DHT22;72587;50.746;8.246;2023-11-19T02:31:02;7.60;99.90
82836;DHT22;72587;50.746;8.246;2023-11-19T02:33:30;7.60;99.90
82836;DHT22;72587;50.746;8.246;2023-11-19T02:35:55;7.60;99.90
82836;DHT22;72587;50.746;8.246;2023-11-19T02:38:21;7.60;99.90
82836;DHT22;72587;50.746;8.246;2023-11-19T02:40:47;7.70;99.90
82836;DHT22;72587;50.746;8.246;2023-11-19T02:43:14;7.70;99.90
82836;DHT22;72587;50.746;8.246;2023-11-19T02:45:40;7.70;99.90
82836;DHT22;72587;50.746;8.246;2023-11-19T02:48:06;7.70;99.90
82836;DHT22;72587;50.746;8.246;2023-11-19T02:50:31;7.70;99.90
82836;DHT22;72587;50.746;8.246;2023-11-19T02:52:57;7.80;99.90
82836;DHT22;72587;50.746;8.246;2023-11-19T02:55:24;7.80;99.90
82836;DHT22;72587;50.746;8.246;2023-11-19T02:57:50;7.80;99.90
82836;DHT22;72587;50.746;8.246;2023-11-19T03:00:20;7.80;99.90
82836;DHT22;72587;50.746;8.246;2023-11-19T03:02:57;7.80;99.90
82836;DHT22;72587;50.746;8.246;2023-11-19T03:05:31;7.80;99.90
82836;DHT22;72587;50.746;8.246;2023-11-19T03:07:56;7.90;99.90
82836;DHT22;72587;50.746;8.246;2023-11-19T03:10:22;7.90;99.90
82836;DHT22;72587;50.746;8.246;2023-11-19T03:12:49;7.90;99.90
82836;DHT22;72587;50.746;8.246;2023-11-19T03:15:15;7.90;99.90
82836;DHT22;72587;50.746;8.246;2023-11-19T03:17:42;8.00;99.90
82836;DHT22;72587;50.746;8.246;2023-11-19T03:20:11;8.00;99.90
82836;DHT22;72587;50.746;8.246;2023-11-19T03:22:43;8.10;99.90
82836;DHT22;72587;50.746;8.246;2023-11-19T03:25:09;8.10;99.90
82836;DHT22;72587;50.746;8.246;2023-11-19T03:27:39;8.10;99.90
82836;DHT22;72587;50.746;8.246;2023-11-19T03:30:11;8.10;99.90
82836;DHT22;72587;50.746;8.246;2023-11-19T03:32:37;8.10;99.90
82836;DHT22;72587;50.746;8.246;2023-11-19T03:35:04;8.10;99.90
82836;DHT22;72587;50.746;8.246;2023-11-19T03:37:32;8.10;99.90
82836;DHT22;72587;50.746;8.246;2023-11-19T03:39:58;8.10;99.90
82836;DHT22;72587;50.746;8.246;2023-11-19T03:42:26;8.20;99.90
82836;DHT22;72587;50.746;8.246;2023-11-19T03:44:52;8.20;99.90
82836;DHT22;72587;50.746;8.246;2023-11-19T03:47:18;8.20;99.90
82836;DHT22;72587;50.746;8.246;2023-11-19T03:49:51;8.20;99.90
82836;DHT22;72587;50.746;8.246;2023-11-19T03:52:17;8.30;99.90
82836;DHT22;72587;50.746;8.246;2023-11-19T03:54:43;8.20;99.90
82836;DHT22;72587;50.746;8.246;2023-11-19T03:57:09;8.20;99.90
82836;DHT22;72587;50.746;8.246;2023-11-19T03:59:38;8.20;99.90
82836;DHT22;72587;50.746;8.246;2023-11-19T04:02:03;8.20;99.90
82836;DHT22;72587;50.746;8.246;2023-11-19T04:04:29;8.10;99.90
82836;DHT22;72587;50.746;8.246;2023-11-19T04:06:55;8.10;99.90
82836;DHT22;72587;50.746;8.246;2023-11-19T04:09:21;8.10;99.90
82836;DHT22;72587;50.746;8.246;2023-11-19T04:11:46;8.10;99.90
82836;DHT22;72587;50.746;8.246;2023-11-19T04:14:13;8.10;99.90
82836;DHT22;72587;50.746;8.246;2023-11-19T04:16:39;8.10;99.90
82836;DHT22;72587;50.746;8.246;2023-11-19T04:19:04;8.10;99.90
82836;DHT22;72587;50.746;8.246;2023-11-19T04:21:30;8.10;99.90
82836;DHT22;72587;50.746;8.246;2023-11-19T04:23:56;8.10;99.90
82836;DHT22;72587;50.746;8.246;2023-11-19T04:26:21;8.10;99.90
82836;DHT22;72587;50.746;8.246;2023-11-19T04:28:47;8.10;99.90
82836;DHT22;72587;50.746;8.246;2023-11-19T04:31:17;8.20;99.90
82836;DHT22;72587;50.746;8.246;2023-11-19T04:33:43;8.20;99.90
82836;DHT22;72587;50.746;8.246;2023-11-19T04:36:10;8.10;99.90
82836;DHT22;72587;50.746;8.246;2023-11-19T04:38:36;8.20;99.90
82836;DHT22;72587;50.746;8.246;2023-11-19T04:41:04;8.20;99.90
82836;DHT22;72587;50.746;8.246;2023-11-19T04:43:31;8.10;99.90
82836;DHT22;72587;50.746;8.246;2023-11-19T04:45:57;8.20;99.90
82836;DHT22;72587;50.746;8.246;2023-11-19T04:48:23;8.30;99.90
82836;DHT22;72587;50.746;8.246;2023-11-19T04:50:49;8.30;99.90
82836;DHT22;72587;50.746;8.246;2023-11-19T04:53:16;8.20;99.90
82836;DHT22;72587;50.746;8.246;2023-11-19T04:55:42;8.30;99.90
82836;DHT22;72587;50.746;8.246;2023-11-19T04:58:08;8.30;99.90
82836;DHT22;72587;50.746;8.246;2023-11-19T05:00:33;8.40;99.90
82836;DHT22;72587;50.746;8.246;2023-11-19T05:02:59;8.40;99.90
82836;DHT22;72587;50.746;8.246;2023-11-19T05:05:24;8.40;99.90
82836;DHT22;72587;50.746;8.246;2023-11-19T05:07:50;8.40;99.90
82836;DHT22;72587;50.746;8.246;2023-11-19T05:10:16;8.40;99.90
82836;DHT22;72587;50.746;8.246;2023-11-19T05:12:41;8.40;99.90
82836;DHT22;72587;50.746;8.246;2023-11-19T05:15:07;8.50;99.90
82836;DHT22;72587;50.746;8.246;2023-11-19T05:17:33;8.50;99.90
82836;DHT22;72587;50.746;8.246;2023-11-19T05:19:59;8.50;99.90
82836;DHT22;72587;50.746;8.246;2023-11-19T05:22:24;8.50;99.90
82836;DHT22;72587;50.746;8.246;2023-11-19T05:24:51;8.50;99.90
82836;DHT22;72587;50.746;8.246;2023-11-19T05:27:17;8.60;99.90
82836;DHT22;72587;50.746;8.246;2023-11-19T05:29:43;8.60;99.90
82836;DHT22;72587;50.746;8.246;2023-11-19T05:32:09;8.60;99.90
82836;DHT22;72587;50.746;8.246;2023-11-19T05:34:35;8.60;99.90
82836;DHT22;72587;50.746;8.246;2023-11-19T05:37:00;8.50;99.90
82836;DHT22;72587;50.746;8.246;2023-11-19T05:39:27;8.60;99.90
82836;DHT22;72587;50.746;8.246;2023-11-19T05:41:53;8.50;99.90
82836;DHT22;72587;50.746;8.246;2023-11-19T05:44:18;8.50;99.90
82836;DHT22;72587;50.746;8.246;2023-11-19T05:46:44;8.50;99.90
82836;DHT22;72587;50.746;8.246;2023-11-19T05:49:11;8.40;99.90
82836;DHT22;72587;50.746;8.246;2023-11-19T05:51:37;8.40;99.90
82836;DHT22;72587;50.746;8.246;2023-11-19T05:54:06;8.40;99.90
82836;DHT22;72587;50.746;8.246;2023-11-19T05:56:32;8.40;99.90
82836;DHT22;72587;50.746;8.246;2023-11-19T05:58:59;8.40;99.90
82836;DHT22;72587;50.746;8.246;2023-11-19T06:01:29;8.40;99.90
82836;DHT22;72587;50.746;8.246;2023-11-19T06:03:55;8.50;99.90
82836;DHT22;72587;50.746;8.246;2023-11-19T06:06:20;9.00;99.90
82836;DHT22;72587;50.746;8.246;2023-11-19T06:08:46;9.20;99.90
82836;DHT22;72587;50.746;8.246;2023-11-19T06:11:12;9.50;99.90
82836;DHT22;72587;50.746;8.246;2023-11-19T06:13:44;9.50;99.90
82836;DHT22;72587;50.746;8.246;2023-11-19T06:16:09;9.50;99.90
82836;DHT22;72587;50.746;8.246;2023-11-19T06:18:36;9.60;99.90
82836;DHT22;72587;50.746;8.246;2023-11-19T06:21:02;9.60;99.90
82836;DHT22;72587;50.746;8.246;2023-11-19T06:23:28;9.60;99.90
82836;DHT22;72587;50.746;8.246;2023-11-19T06:25:53;9.70;99.90
82836;DHT22;72587;50.746;8.246;2023-11-19T06:28:19;9.60;99.90
82836;DHT22;72587;50.746;8.246;2023-11-19T06:30:44;9.60;99.90
82836;DHT22;72587;50.746;8.246;2023-11-19T06:33:13;9.50;99.90
82836;DHT22;72587;50.746;8.246;2023-11-19T06:35:39;9.50;99.90
82836;DHT22;72587;50.746;8.246;2023-11-19T06:38:05;9.50;99.90
82836;DHT22;72587;50.746;8.246;2023-11-19T06:40:31;9.40;99.90
82836;DHT22;72587;50.746;8.246;2023-11-19T06:42:57;9.40;99.90
82836;DHT22;72587;50.746;8.246;2023-11-19T06:45:22;9.40;99.90
82836;DHT22;72587;50.746;8.246;2023-11-19T06:47:48;9.40;99.90
82836;DHT22;72587;50.746;8.246;2023-11-19T06:50:15;9.30;99.90
82836;DHT22;72587;50.746;8.246;2023-11-19T06:52:41;9.40;99.90
82836;DHT22;72587;50.746;8.246;2023-11-19T06:55:07;9.30;99.90
82836;DHT22;72587;50.746;8.246;2023-11-19T06:57:33;9.30;99.90
82836;DHT22;72587;50.746;8.246;2023-11-19T06:59:58;9.20;99.90
82836;DHT22;72587;50.746;8.246;2023-11-19T07:02:24;9.20;99.90
82836;DHT22;72587;50.746;8.246;2023-11-19T07:04:50;9.20;99.90
82836;DHT22;72587;50.746;8.246;2023-11-19T07:07:16;9.20;99.90
82836;DHT22;72587;50.746;8.246;2023-11-19T07:09:41;9.30;99.90
82836;DHT22;72587;50.746;8.246;2023-11-19T07:12:08;9.30;99.90
82836;DHT22;72587;50.746;8.246;2023-11-19T07:14:34;9.30;99.90
82836;DHT22;72587;50.746;8.246;2023-11-19T07:16:59;9.30;99.90
82836;DHT22;72587;50.746;8.246;2023-11-19T07:19:25;9.30;99.90
82836;DHT22;72587;50.746;8.246;2023-11-19T07:21:51;9.30;99.90
82836;DHT22;72587;50.746;8.246;2023-11-19T07:24:19;9.20;99.90
82836;DHT22;72587;50.746;8.246;2023-11-19T07:26:46;9.30;99.90
82836;DHT22;72587;50.746;8.246;2023-11-19T07:29:15;9.40;99.90
82836;DHT22;72587;50.746;8.246;2023-11-19T07:31:42;9.50;99.90
82836;DHT22;72587;50.746;8.246;2023-11-19T07:34:09;9.50;99.90
82836;DHT22;72587;50.746;8.246;2023-11-19T07:36:36;9.60;99.90
82836;DHT22;72587;50.746;8.246;2023-11-19T07:39:01;9.70;99.90
82836;DHT22;72587;50.746;8.246;2023-11-19T07:41:27;9.70;99.90
82836;DHT22;72587;50.746;8.246;2023-11-19T07:43:54;9.70;99.90
82836;DHT22;72587;50.746;8.246;2023-11-19T07:46:20;9.80;99.90
82836;DHT22;72587;50.746;8.246;2023-11-19T07:48:45;9.80;99.90
82836;DHT22;72587;50.746;8.246;2023-11-19T07:51:14;9.70;99.90
82836;DHT22;72587;50.746;8.246;2023-11-19T07:53:40;9.70;99.90
82836;DHT22;72587;50.746;8.246;2023-11-19T07:56:07;9.80;99.90
82836;DHT22;72587;50.746;8.246;2023-11-19T07:58:33;9.80;99.90
82836;DHT22;72587;50.746;8.246;2023-11-19T08:00:58;9.80;99.90
82836;DHT22;72587;50.746;8.246;2023-11-19T08:03:24;9.80;99.90
82836;DHT22;72587;50.746;8.246;2023-11-19T08:05:50;9.90;99.90
82836;DHT22;72587;50.746;8.246;2023-11-19T08:08:16;9.90;99.90
82836;DHT22;72587;50.746;8.246;2023-11-19T08:10:42;10.00;99.90
82836;DHT22;72587;50.746;8.246;2023-11-19T08:13:10;9.90;99.90
82836;DHT22;72587;50.746;8.246;2023-11-19T08:15:35;10.00;99.90
82836;DHT22;72587;50.746;8.246;2023-11-19T08:18:01;10.00;99.90
82836;DHT22;72587;50.746;8.246;2023-11-19T08:20:27;10.10;99.90
82836;DHT22;72587;50.746;8.246;2023-11-19T08:22:53;10.10;99.90
82836;DHT22;72587;50.746;8.246;2023-11-19T08:25:18;10.10;99.90
82836;DHT22;72587;50.746;8.246;2023-11-19T08:27:44;10.10;99.90
82836;DHT22;72587;50.746;8.246;2023-11-19T08:30:10;10.10;99.90
82836;DHT22;72587;50.746;8.246;2023-11-19T08:32:35;10.20;99.90
82836;DHT22;72587;50.746;8.246;2023-11-19T08:35:01;10.30;99.90
82836;DHT22;72587;50.746;8.246;2023-11-19T08:37:27;10.50;99.90
82836;DHT22;72587;50.746;8.246;2023-11-19T08:39:53;10.60;99.90
82836;DHT22;72587;50.746;8.246;2023-11-19T08:42:19;10.90;99.90
82836;DHT22;72587;50.746;8.246;2023-11-19T08:44:48;11.10;99.90
82836;DHT22;72587;50.746;8.246;2023-11-19T08:47:16;11.20;99.90
82836;DHT22;72587;50.746;8.246;2023-11-19T08:49:43;11.30;99.90
82836;DHT22;72587;50.746;8.246;2023-11-19T08:52:09;11.30;99.90
82836;DHT22;72587;50.746;8.246;2023-11-19T08:54:36;11.20;99.90
82836;DHT22;72587;50.746;8.246;2023-11-19T08:57:02;11.10;99.90
82836;DHT22;72587;50.746;8.246;2023-11-19T08:59:29;11.00;99.90
82836;DHT22;72587;50.746;8.246;2023-11-19T09:01:54;10.90;99.90
82836;DHT22;72587;50.746;8.246;2023-11-19T09:04:20;10.70;99.90
82836;DHT22;72587;50.746;8.246;2023-11-19T09:06:48;10.60;99.90
82836;DHT22;72587;50.746;8.246;2023-11-19T09:09:13;10.50;99.90
82836;DHT22;72587;50.746;8.246;2023-11-19T09:11:39;10.30;99.90
82836;DHT22;72587;50.746;8.246;2023-11-19T09:14:05;10.20;99.90
82836;DHT22;72587;50.746;8.246;2023-11-19T09:16:30;10.20;99.90
82836;DHT22;72587;50.746;8.246;2023-11-19T09:18:56;10.10;99.90
82836;DHT22;72587;50.746;8.246;2023-11-19T09:21:23;10.20;99.90
82836;DHT22;72587;50.746;8.246;2023-11-19T09:23:48;10.20;99.90
82836;DHT22;72587;50.746;8.246;2023-11-19T09:26:14;10.30;99.90
82836;DHT22;72587;50.746;8.246;2023-11-19T09:28:40;10.50;99.90
82836;DHT22;72587;50.746;8.246;2023-11-19T09:31:16;10.80;99.90
82836;DHT22;72587;50.746;8.246;2023-11-19T09:33:42;10.90;99.90
82836;DHT22;72587;50.746;8.246;2023-11-19T09:36:08;11.00;99.90
82836;DHT22;72587;50.746;8.246;2023-11-19T09:38:34;11.00;99.90
82836;DHT22;72587;50.746;8.246;2023-11-19T09:41:04;10.90;99.90
82836;DHT22;72587;50.746;8.246;2023-11-19T09:43:33;11.20;99.90
82836;DHT22;72587;50.746;8.246;2023-11-19T09:46:04;11.90;99.90
82836;DHT22;72587;50.746;8.246;2023-11-19T09:48:36;12.50;99.90
82836;DHT22;72587;50.746;8.246;2023-11-19T09:51:06;13.30;99.90
82836;DHT22;72587;50.746;8.246;2023-11-19T09:53:33;14.00;99.90
82836;DHT22;72587;50.746;8.246;2023-11-19T09:56:00;13.80;99.90
82836;DHT22;72587;50.746;8.246;2023-11-19T09:58:28;13.00;99.90
82836;DHT22;72587;50.746;8.246;2023-11-19T10:00:54;12.50;99.90
82836;DHT22;72587;50.746;8.246;2023-11-19T10:03:20;12.30;99.90
82836;DHT22;72587;50.746;8.246;2023-11-19T10:05:48;12.20;99.90
82836;DHT22;72587;50.746;8.246;2023-11-19T10:08:14;12.10;99.90
82836;DHT22;72587;50.746;8.246;2023-11-19T10:10:39;12.00;99.90
82836;DHT22;72587;50.746;8.246;2023-11-19T10:13:05;12.00;99.90
82836;DHT22;72587;50.746;8.246;2023-11-19T10:15:36;12.10;99.90
82836;DHT22;72587;50.746;8.246;2023-11-19T10:18:03;12.20;99.90
82836;DHT22;72587;50.746;8.246;2023-11-19T10:20:37;12.30;99.90
82836;DHT22;72587;50.746;8.246;2023-11-19T10:23:05;12.30;99.90
82836;DHT22;72587;50.746;8.246;2023-11-19T10:25:32;12.20;99.90
82836;DHT22;72587;50.746;8.246;2023-11-19T10:27:59;12.30;99.90
82836;DHT22;72587;50.746;8.246;2023-11-19T10:30:27;12.20;99.90
82836;DHT22;72587;50.746;8.246;2023-11-19T10:33:06;12.30;99.90
82836;DHT22;72587;50.746;8.246;2023-11-19T10:35:36;12.30;99.90
82836;DHT22;72587;50.746;8.246;2023-11-19T10:38:15;12.30;99.90
82836;DHT22;72587;50.746;8.246;2023-11-19T10:40:41;12.30;99.90
82836;DHT22;72587;50.746;8.246;2023-11-19T10:43:07;12.30;99.90
82836;DHT22;72587;50.746;8.246;2023-11-19T10:45:37;12.40;99.90
82836;DHT22;72587;50.746;8.246;2023-11-19T10:48:04;12.40;99.90
82836;DHT22;72587;50.746;8.246;2023-11-19T10:50:37;12.50;99.90
82836;DHT22;72587;50.746;8.246;2023-11-19T10:53:03;12.50;99.90
82836;DHT22;72587;50.746;8.246;2023-11-19T10:55:31;12.60;99.90
82836;DHT22;72587;50.746;8.246;2023-11-19T10:58:00;12.60;99.90
82836;DHT22;72587;50.746;8.246;2023-11-19T11:00:39;12.60;99.90
82836;DHT22;72587;50.746;8.246;2023-11-19T11:05:41;12.70;99.90
82836;DHT22;72587;50.746;8.246;2023-11-19T11:08:07;12.60;99.90
82836;DHT22;72587;50.746;8.246;2023-11-19T11:10:39;12.60;99.90
82836;DHT22;72587;50.746;8.246;2023-11-19T11:13:07;12.70;99.90
82836;DHT22;72587;50.746;8.246;2023-11-19T11:15:33;12.60;99.90
82836;DHT22;72587;50.746;8.246;2023-11-19T11:18:01;12.50;99.90
82836;DHT22;72587;50.746;8.246;2023-11-19T11:20:33;12.60;99.90
82836;DHT22;72587;50.746;8.246;2023-11-19T11:28:39;12.40;99.90
82836;DHT22;72587;50.746;8.246;2023-11-19T11:31:19;12.30;99.90
82836;DHT22;72587;50.746;8.246;2023-11-19T11:34:25;12.30;99.90
82836;DHT22;72587;50.746;8.246;2023-11-19T11:39:52;12.40;99.90
82836;DHT22;72587;50.746;8.246;2023-11-19T11:45:03;12.30;99.90
82836;DHT22;72587;50.746;8.246;2023-11-19T11:50:15;12.40;99.90
82836;DHT22;72587;50.746;8.246;2023-11-19T11:55:28;12.30;99.90
82836;DHT22;72587;50.746;8.246;2023-11-19T11:57:57;12.20;99.90
82836;DHT22;72587;50.746;8.246;2023-11-19T12:00:26;12.20;99.90
82836;DHT22;72587;50.746;8.246;2023-11-19T12:03:00;12.20;99.90
82836;DHT22;72587;50.746;8.246;2023-11-19T12:05:27;12.30;99.90
82836;DHT22;72587;50.746;8.246;2023-11-19T12:08:03;12.40;99.90
82836;DHT22;72587;50.746;8.246;2023-11-19T12:10:30;12.40;99.90
82836;DHT22;72587;50.746;8.246;2023-11-19T12:13:06;12.60;99.90
82836;DHT22;72587;50.746;8.246;2023-11-19T12:15:32;12.60;99.90
82836;DHT22;72587;50.746;8.246;2023-11-19T12:17:58;12.60;99.90
82836;DHT22;72587;50.746;8.246;2023-11-19T12:20:25;12.60;99.90
82836;DHT22;72587;50.746;8.246;2023-11-19T12:22:52;12.50;99.90
82836;DHT22;72587;50.746;8.246;2023-11-19T12:25:18;12.50;99.90
82836;DHT22;72587;50.746;8.246;2023-11-19T12:27:47;12.50;99.90
82836;DHT22;72587;50.746;8.246;2023-11-19T12:30:17;12.40;99.90
82836;DHT22;72587;50.746;8.246;2023-11-19T12:32:45;12.40;99.90
82836;DHT22;72587;50.746;8.246;2023-11-19T12:35:12;12.50;99.90
82836;DHT22;72587;50.746;8.246;2023-11-19T12:37:49;12.50;99.90
82836;DHT22;72587;50.746;8.246;2023-11-19T12:42:43;12.40;99.90
82836;DHT22;72587;50.746;8.246;2023-11-19T12:45:08;12.40;99.90
82836;DHT22;72587;50.746;8.246;2023-11-19T12:47:38;12.20;99.90
82836;DHT22;72587;50.746;8.246;2023-11-19T12:50:04;12.00;99.90
82836;DHT22;72587;50.746;8.246;2023-11-19T12:52:30;11.90;99.90
82836;DHT22;72587;50.746;8.246;2023-11-19T12:54:55;11.80;99.90
82836;DHT22;72587;50.746;8.246;2023-11-19T12:57:44;11.70;99.90
82836;DHT22;72587;50.746;8.246;2023-11-19T13:00:24;11.60;99.90
82836;DHT22;72587;50.746;8.246;2023-11-19T13:02:54;11.60;99.90
82836;DHT22;72587;50.746;8.246;2023-11-19T13:05:31;11.50;99.90
82836;DHT22;72587;50.746;8.246;2023-11-19T13:08:02;11.40;99.90
82836;DHT22;72587;50.746;8.246;2023-11-19T13:10:29;11.30;99.90
82836;DHT22;72587;50.746;8.246;2023-11-19T13:13:02;11.20;99.90
82836;DHT22;72587;50.746;8.246;2023-11-19T13:15:27;11.20;99.90
82836;DHT22;72587;50.746;8.246;2023-11-19T13:17:54;11.10;99.90
82836;DHT22;72587;50.746;8.246;2023-11-19T13:20:19;11.10;99.90
82836;DHT22;72587;50.746;8.246;2023-11-19T13:23:01;11.20;99.90
82836;DHT22;72587;50.746;8.246;2023-11-19T13:25:27;11.30;99.90
82836;DHT22;72587;50.746;8.246;2023-11-19T13:27:54;11.30;99.90
82836;DHT22;72587;50.746;8.246;2023-11-19T13:30:20;11.30;99.90
82836;DHT22;72587;50.746;8.246;2023-11-19T13:32:46;11.40;99.90
82836;DHT22;72587;50.746;8.246;2023-11-19T13:35:15;11.40;99.90
82836;DHT22;72587;50.746;8.246;2023-11-19T13:37:41;11.50;99.90
82836;DHT22;72587;50.746;8.246;2023-11-19T13:40:07;11.50;99.90
82836;DHT22;72587;50.746;8.246;2023-11-19T13:42:38;11.40;99.90
82836;DHT22;72587;50.746;8.246;2023-11-19T13:47:36;11.30;99.90
82836;DHT22;72587;50.746;8.246;2023-11-19T13:50:02;11.30;99.90
82836;DHT22;72587;50.746;8.246;2023-11-19T13:52:31;11.20;99.90
82836;DHT22;72587;50.746;8.246;2023-11-19T13:54:57;11.30;99.90
82836;DHT22;72587;50.746;8.246;2023-11-19T13:57:22;11.20;99.90
82836;DHT22;72587;50.746;8.246;2023-11-19T13:59:48;11.10;99.90
82836;DHT22;72587;50.746;8.246;2023-11-19T14:02:13;11.10;99.90
82836;DHT22;72587;50.746;8.246;2023-11-19T14:04:39;11.00;99.90
82836;DHT22;72587;50.746;8.246;2023-11-19T14:07:04;11.00;99.90
82836;DHT22;72587;50.746;8.246;2023-11-19T14:09:30;11.00;99.90
82836;DHT22;72587;50.746;8.246;2023-11-19T14:11:55;11.00;99.90
82836;DHT22;72587;50.746;8.246;2023-11-19T14:14:21;11.00;99.90
82836;DHT22;72587;50.746;8.246;2023-11-19T14:16:46;10.90;99.90
82836;DHT22;72587;50.746;8.246;2023-11-19T14:19:12;10.80;99.90
82836;DHT22;72587;50.746;8.246;2023-11-19T14:21:39;10.80;99.90
82836;DHT22;72587;50.746;8.246;2023-11-19T14:24:05;10.70;99.90
82836;DHT22;72587;50.746;8.246;2023-11-19T14:26:30;10.70;99.90
82836;DHT22;72587;50.746;8.246;2023-11-19T14:28:56;10.60;99.90
82836;DHT22;72587;50.746;8.246;2023-11-19T14:31:21;10.60;99.90
82836;DHT22;72587;50.746;8.246;2023-11-19T14:33:47;10.60;99.90
82836;DHT22;72587;50.746;8.246;2023-11-19T14:36:14;10.50;99.90
82836;DHT22;72587;50.746;8.246;2023-11-19T14:38:39;10.50;99.90
82836;DHT22;72587;50.746;8.246;2023-11-19T14:41:05;10.50;99.90
82836;DHT22;72587;50.746;8.246;2023-11-19T14:43:31;10.50;99.90
82836;DHT22;72587;50.746;8.246;2023-11-19T14:45:57;10.50;99.90
82836;DHT22;72587;50.746;8.246;2023-11-19T14:48:22;10.50;99.90
82836;DHT22;72587;50.746;8.246;2023-11-19T14:50:48;10.40;99.90
82836;DHT22;72587;50.746;8.246;2023-11-19T14:53:15;10.40;99.90
82836;DHT22;72587;50.746;8.246;2023-11-19T14:55:41;10.40;99.90
82836;DHT22;72587;50.746;8.246;2023-11-19T14:58:06;10.40;99.90
82836;DHT22;72587;50.746;8.246;2023-11-19T15:00:33;10.40;99.90
82836;DHT22;72587;50.746;8.246;2023-11-19T15:02:59;10.40;99.90
82836;DHT22;72587;50.746;8.246;2023-11-19T15:05:24;10.40;99.90
82836;DHT22;72587;50.746;8.246;2023-11-19T15:07:50;10.30;99.90
82836;DHT22;72587;50.746;8.246;2023-11-19T15:10:15;10.20;99.90
82836;DHT22;72587;50.746;8.246;2023-11-19T15:12:41;10.10;99.90
82836;DHT22;72587;50.746;8.246;2023-11-19T15:15:08;10.00;99.90
82836;DHT22;72587;50.746;8.246;2023-11-19T15:17:44;10.00;99.90
82836;DHT22;72587;50.746;8.246;2023-11-19T15:20:10;9.90;99.90
82836;DHT22;72587;50.746;8.246;2023-11-19T15:22:38;9.90;99.90
82836;DHT22;72587;50.746;8.246;2023-11-19T15:25:04;9.80;99.90
82836;DHT22;72587;50.746;8.246;2023-11-19T15:27:31;9.70;99.90
82836;DHT22;72587;50.746;8.246;2023-11-19T15:29:57;9.70;99.90
82836;DHT22;72587;50.746;8.246;2023-11-19T15:32:22;9.60;99.90
82836;DHT22;72587;50.746;8.246;2023-11-19T15:34:48;9.50;99.90
82836;DHT22;72587;50.746;8.246;2023-11-19T15:37:13;9.50;99.90
82836;DHT22;72587;50.746;8.246;2023-11-19T15:39:40;9.40;99.90
82836;DHT22;72587;50.746;8.246;2023-11-19T15:42:06;9.40;99.90
82836;DHT22;72587;50.746;8.246;2023-11-19T15:44:32;9.30;99.90
82836;DHT22;72587;50.746;8.246;2023-11-19T15:46:57;9.30;99.90
82836;DHT22;72587;50.746;8.246;2023-11-19T15:49:24;9.30;99.90
82836;DHT22;72587;50.746;8.246;2023-11-19T15:51:49;9.30;99.90
82836;DHT22;72587;50.746;8.246;2023-11-19T15:54:15;9.40;99.90
82836;DHT22;72587;50.746;8.246;2023-11-19T15:56:41;9.40;99.90
82836;DHT22;72587;50.746;8.246;2023-11-19T15:59:06;9.40;99.90
82836;DHT22;72587;50.746;8.246;2023-11-19T16:01:33;9.40;99.90
82836;DHT22;72587;50.746;8.246;2023-11-19T16:03:59;9.50;99.90
82836;DHT22;72587;50.746;8.246;2023-11-19T16:06:24;9.60;99.90